sensor_id;sensor_type;location;lat;lon;timestamp;temperature;humidity
38325;DHT22;24126;52.672;13.622;2023-08-12T00:00:25;23.10;64.10
38325;DHT22;24126;52.672;13.622;2023-08-12T00:02:53;23.10;64.20
38325;DHT22;24126;52.672;13.622;2023-08-12T00:05:20;23.00;64.00
38325;DHT22;24126;52.672;13.622;2023-08-12T00:07:47;23.00;64.30
38325;DHT22;24126;52.672;13.622;2023-08-12T00:10:15;23.00;64.30
38325;DHT22;24126;52.672;13.622;2023-08-12T00:12:42;23.00;64.50
38325;DHT22;24126;52.672;13.622;2023-08-12T00:15:09;23.00;64.50
38325;DHT22;24126;52.672;13.622;2023-08-12T00:17:36;23.00;64.60
38325;DHT22;24126;52.672;13.622;2023-08-12T00:20:06;22.90;64.60
38325;DHT22;24126;52.672;13.622;2023-08-12T00:22:36;22.90;64.70
38325;DHT22;24126;52.672;13.622;2023-08-12T00:25:04;22.90;64.80
38325;DHT22;24126;52.672;13.622;2023-08-12T00:27:31;22.90;65.00
38325;DHT22;24126;52.672;13.622;2023-08-12T00:29:58;22.80;65.10
38325;DHT22;24126;52.672;13.622;2023-08-12T00:32:25;22.80;65.20
38325;DHT22;24126;52.672;13.622;2023-08-12T00:34:52;22.80;65.10
38325;DHT22;24126;52.672;13.622;2023-08-12T00:37:19;22.80;65.30
38325;DHT22;24126;52.672;13.622;2023-08-12T00:39:46;22.70;65.50
38325;DHT22;24126;52.672;13.622;2023-08-12T00:42:13;22.70;65.50
38325;DHT22;24126;52.672;13.622;2023-08-12T00:44:40;22.70;65.80
38325;DHT22;24126;52.672;13.622;2023-08-12T00:47:07;22.70;65.80
38325;DHT22;24126;52.672;13.622;2023-08-12T00:49:35;22.70;66.30
38325;DHT22;24126;52.672;13.622;2023-08-12T00:52:03;22.70;65.60
38325;DHT22;24126;52.672;13.622;2023-08-12T00:54:30;22.70;65.60
38325;DHT22;24126;52.672;13.622;2023-08-12T00:56:58;22.70;65.90
38325;DHT22;24126;52.672;13.622;2023-08-12T00:59:25;22.70;65.90
38325;DHT22;24126;52.672;13.622;2023-08-12T01:01:52;22.60;66.00
38325;DHT22;24126;52.672;13.622;2023-08-12T01:04:20;22.60;66.30
38325;DHT22;24126;52.672;13.622;2023-08-12T01:06:47;22.60;66.30
38325;DHT22;24126;52.672;13.622;2023-08-12T01:09:14;22.60;66.30
38325;DHT22;24126;52.672;13.622;2023-08-12T01:11:47;22.60;66.40
38325;DHT22;24126;52.672;13.622;2023-08-12T01:17:03;22.60;66.70
38325;DHT22;24126;52.672;13.622;2023-08-12T01:19:35;22.60;66.70
38325;DHT22;24126;52.672;13.622;2023-08-12T01:22:03;22.60;66.70
38325;DHT22;24126;52.672;13.622;2023-08-12T01:24:33;22.50;66.80
38325;DHT22;24126;52.672;13.622;2023-08-12T01:27:01;22.50;66.80
38325;DHT22;24126;52.672;13.622;2023-08-12T01:29:28;22.50;66.80
38325;DHT22;24126;52.672;13.622;2023-08-12T01:31:58;22.50;66.80
38325;DHT22;24126;52.672;13.622;2023-08-12T01:34:32;22.50;66.70
38325;DHT22;24126;52.672;13.622;2023-08-12T01:37:02;22.40;66.80
38325;DHT22;24126;52.672;13.622;2023-08-12T01:39:31;22.40;66.80
38325;DHT22;24126;52.672;13.622;2023-08-12T01:42:00;22.40;67.00
38325;DHT22;24126;52.672;13.622;2023-08-12T01:44:27;22.40;67.10
38325;DHT22;24126;52.672;13.622;2023-08-12T01:46:54;22.40;67.10
38325;DHT22;24126;52.672;13.622;2023-08-12T01:49:22;22.30;67.00
38325;DHT22;24126;52.672;13.622;2023-08-12T01:51:50;22.30;67.00
38325;DHT22;24126;52.672;13.622;2023-08-12T01:54:17;22.30;67.10
38325;DHT22;24126;52.672;13.622;2023-08-12T01:56:44;22.30;67.00
38325;DHT22;24126;52.672;13.622;2023-08-12T01:59:11;22.30;67.10
38325;DHT22;24126;52.672;13.622;2023-08-12T02:01:38;22.30;67.20
38325;DHT22;24126;52.672;13.622;2023-08-12T02:04:06;22.30;67.20
38325;DHT22;24126;52.672;13.622;2023-08-12T02:06:33;22.30;67.30
38325;DHT22;24126;52.672;13.622;2023-08-12T02:09:00;22.30;67.40
38325;DHT22;24126;52.672;13.622;2023-08-12T02:11:27;22.30;67.10
38325;DHT22;24126;52.672;13.622;2023-08-12T02:13:54;22.30;67.20
38325;DHT22;24126;52.672;13.622;2023-08-12T02:16:21;22.20;67.30
38325;DHT22;24126;52.672;13.622;2023-08-12T02:18:48;22.20;67.30
38325;DHT22;24126;52.672;13.622;2023-08-12T02:21:15;22.20;67.30
38325;DHT22;24126;52.672;13.622;2023-08-12T02:23:42;22.30;67.40
38325;DHT22;24126;52.672;13.622;2023-08-12T02:26:10;22.30;67.10
38325;DHT22;24126;52.672;13.622;2023-08-12T02:28:37;22.20;66.90
38325;DHT22;24126;52.672;13.622;2023-08-12T02:31:05;22.20;67.20
38325;DHT22;24126;52.672;13.622;2023-08-12T02:33:32;22.20;67.30
38325;DHT22;24126;52.672;13.622;2023-08-12T02:35:59;22.20;67.40
38325;DHT22;24126;52.672;13.622;2023-08-12T02:38:26;22.20;67.50
38325;DHT22;24126;52.672;13.622;2023-08-12T02:40:53;22.20;67.40
38325;DHT22;24126;52.672;13.622;2023-08-12T02:43:21;22.20;67.50
38325;DHT22;24126;52.672;13.622;2023-08-12T02:45:48;22.20;67.50
38325;DHT22;24126;52.672;13.622;2023-08-12T02:48:15;22.20;67.60
38325;DHT22;24126;52.672;13.622;2023-08-12T02:50:42;22.20;67.70
38325;DHT22;24126;52.672;13.622;2023-08-12T02:53:09;22.20;67.60
38325;DHT22;24126;52.672;13.622;2023-08-12T02:55:36;22.20;67.70
38325;DHT22;24126;52.672;13.622;2023-08-12T02:58:04;22.10;67.70
38325;DHT22;24126;52.672;13.622;2023-08-12T03:00:31;22.10;67.80
38325;DHT22;24126;52.672;13.622;2023-08-12T03:02:58;22.20;67.90
38325;DHT22;24126;52.672;13.622;2023-08-12T03:05:25;22.10;67.80
38325;DHT22;24126;52.672;13.622;2023-08-12T03:07:52;22.10;67.80
38325;DHT22;24126;52.672;13.622;2023-08-12T03:10:19;22.10;67.80
38325;DHT22;24126;52.672;13.622;2023-08-12T03:12:46;22.10;67.80
38325;DHT22;24126;52.672;13.622;2023-08-12T03:15:13;22.10;67.90
38325;DHT22;24126;52.672;13.622;2023-08-12T03:17:40;22.10;67.90
38325;DHT22;24126;52.672;13.622;2023-08-12T03:20:08;22.10;68.00
38325;DHT22;24126;52.672;13.622;2023-08-12T03:22:36;22.10;68.00
38325;DHT22;24126;52.672;13.622;2023-08-12T03:25:04;22.10;68.10
38325;DHT22;24126;52.672;13.622;2023-08-12T03:27:34;22.10;68.10
38325;DHT22;24126;52.672;13.622;2023-08-12T03:30:01;22.10;68.10
38325;DHT22;24126;52.672;13.622;2023-08-12T03:32:29;22.10;68.10
38325;DHT22;24126;52.672;13.622;2023-08-12T03:34:56;22.10;68.00
38325;DHT22;24126;52.672;13.622;2023-08-12T03:37:23;22.00;67.90
38325;DHT22;24126;52.672;13.622;2023-08-12T03:39:52;22.00;68.00
38325;DHT22;24126;52.672;13.622;2023-08-12T03:42:20;22.00;68.20
38325;DHT22;24126;52.672;13.622;2023-08-12T03:44:48;22.00;68.20
38325;DHT22;24126;52.672;13.622;2023-08-12T03:47:15;22.00;68.20
38325;DHT22;24126;52.672;13.622;2023-08-12T03:49:47;22.00;68.20
38325;DHT22;24126;52.672;13.622;2023-08-12T03:52:15;21.90;68.20
38325;DHT22;24126;52.672;13.622;2023-08-12T03:54:42;21.90;68.20
38325;DHT22;24126;52.672;13.622;2023-08-12T03:57:09;21.90;68.30
38325;DHT22;24126;52.672;13.622;2023-08-12T03:59:37;21.80;68.20
38325;DHT22;24126;52.672;13.622;2023-08-12T04:02:04;21.80;68.20
38325;DHT22;24126;52.672;13.622;2023-08-12T04:04:31;21.80;68.30
38325;DHT22;24126;52.672;13.622;2023-08-12T04:06:59;21.80;68.40
38325;DHT22;24126;52.672;13.622;2023-08-12T04:09:26;21.80;68.50
38325;DHT22;24126;52.672;13.622;2023-08-12T04:11:53;21.80;68.40
38325;DHT22;24126;52.672;13.622;2023-08-12T04:14:20;21.80;68.50
38325;DHT22;24126;52.672;13.622;2023-08-12T04:16:47;21.90;68.60
38325;DHT22;24126;52.672;13.622;2023-08-12T04:19:17;21.90;68.50
38325;DHT22;24126;52.672;13.622;2023-08-12T04:21:44;21.90;68.70
38325;DHT22;24126;52.672;13.622;2023-08-12T04:24:12;21.90;68.70
38325;DHT22;24126;52.672;13.622;2023-08-12T04:26:39;21.90;68.70
38325;DHT22;24126;52.672;13.622;2023-08-12T04:29:06;21.90;68.50
38325;DHT22;24126;52.672;13.622;2023-08-12T04:31:37;21.90;68.40
38325;DHT22;24126;52.672;13.622;2023-08-12T04:34:04;22.00;68.50
38325;DHT22;24126;52.672;13.622;2023-08-12T04:36:32;22.00;68.60
38325;DHT22;24126;52.672;13.622;2023-08-12T04:39:01;22.00;68.60
38325;DHT22;24126;52.672;13.622;2023-08-12T04:41:29;22.10;68.40
38325;DHT22;24126;52.672;13.622;2023-08-12T04:43:57;22.10;68.60
38325;DHT22;24126;52.672;13.622;2023-08-12T04:46:27;22.20;68.70
38325;DHT22;24126;52.672;13.622;2023-08-12T04:48:54;22.30;69.20
38325;DHT22;24126;52.672;13.622;2023-08-12T04:51:22;22.40;68.40
38325;DHT22;24126;52.672;13.622;2023-08-12T04:53:49;22.50;68.40
38325;DHT22;24126;52.672;13.622;2023-08-12T04:56:16;22.70;69.00
38325;DHT22;24126;52.672;13.622;2023-08-12T04:58:45;22.80;68.10
38325;DHT22;24126;52.672;13.622;2023-08-12T05:01:12;23.00;67.90
38325;DHT22;24126;52.672;13.622;2023-08-12T05:03:39;23.10;67.60
38325;DHT22;24126;52.672;13.622;2023-08-12T05:06:07;23.20;67.50
38325;DHT22;24126;52.672;13.622;2023-08-12T05:08:34;23.40;67.10
38325;DHT22;24126;52.672;13.622;2023-08-12T05:11:02;23.50;66.60
38325;DHT22;24126;52.672;13.622;2023-08-12T05:13:30;23.60;66.20
38325;DHT22;24126;52.672;13.622;2023-08-12T05:15:57;23.70;65.90
38325;DHT22;24126;52.672;13.622;2023-08-12T05:18:24;23.90;65.70
38325;DHT22;24126;52.672;13.622;2023-08-12T05:20:52;24.00;65.30
38325;DHT22;24126;52.672;13.622;2023-08-12T05:23:20;24.10;64.70
38325;DHT22;24126;52.672;13.622;2023-08-12T05:25:47;24.20;64.70
38325;DHT22;24126;52.672;13.622;2023-08-12T05:28:14;24.30;64.80
38325;DHT22;24126;52.672;13.622;2023-08-12T05:30:41;24.40;63.60
38325;DHT22;24126;52.672;13.622;2023-08-12T05:33:08;24.50;63.50
38325;DHT22;24126;52.672;13.622;2023-08-12T05:35:35;24.60;63.30
38325;DHT22;24126;52.672;13.622;2023-08-12T05:38:02;24.60;62.70
38325;DHT22;24126;52.672;13.622;2023-08-12T05:40:29;24.70;62.10
38325;DHT22;24126;52.672;13.622;2023-08-12T05:42:57;24.70;62.00
38325;DHT22;24126;52.672;13.622;2023-08-12T05:45:24;24.70;62.00
38325;DHT22;24126;52.672;13.622;2023-08-12T05:47:51;24.80;61.90
38325;DHT22;24126;52.672;13.622;2023-08-12T05:50:18;24.90;61.50
38325;DHT22;24126;52.672;13.622;2023-08-12T05:52:45;25.10;61.20
38325;DHT22;24126;52.672;13.622;2023-08-12T05:55:12;25.20;60.70
38325;DHT22;24126;52.672;13.622;2023-08-12T05:57:39;25.30;60.60
38325;DHT22;24126;52.672;13.622;2023-08-12T06:00:06;25.30;60.90
38325;DHT22;24126;52.672;13.622;2023-08-12T06:02:40;25.40;60.60
38325;DHT22;24126;52.672;13.622;2023-08-12T06:05:07;25.40;59.90
38325;DHT22;24126;52.672;13.622;2023-08-12T06:07:34;25.40;59.80
38325;DHT22;24126;52.672;13.622;2023-08-12T06:10:01;25.40;60.10
38325;DHT22;24126;52.672;13.622;2023-08-12T06:12:29;25.40;60.40
38325;DHT22;24126;52.672;13.622;2023-08-12T06:14:56;25.40;60.90
38325;DHT22;24126;52.672;13.622;2023-08-12T06:17:23;25.40;60.60
38325;DHT22;24126;52.672;13.622;2023-08-12T06:19:50;25.50;60.70
38325;DHT22;24126;52.672;13.622;2023-08-12T06:22:19;25.50;60.10
38325;DHT22;24126;52.672;13.622;2023-08-12T06:24:46;25.50;60.30
38325;DHT22;24126;52.672;13.622;2023-08-12T06:27:13;25.40;59.70
38325;DHT22;24126;52.672;13.622;2023-08-12T06:29:40;25.40;59.90
38325;DHT22;24126;52.672;13.622;2023-08-12T06:32:07;25.40;59.90
38325;DHT22;24126;52.672;13.622;2023-08-12T06:34:38;25.50;60.00
38325;DHT22;24126;52.672;13.622;2023-08-12T06:37:05;25.50;60.00
38325;DHT22;24126;52.672;13.622;2023-08-12T06:39:32;25.60;60.10
38325;DHT22;24126;52.672;13.622;2023-08-12T06:41:59;25.60;60.10
38325;DHT22;24126;52.672;13.622;2023-08-12T06:44:26;25.60;60.00
38325;DHT22;24126;52.672;13.622;2023-08-12T06:46:53;25.70;60.00
38325;DHT22;24126;52.672;13.622;2023-08-12T06:49:20;25.70;59.70
38325;DHT22;24126;52.672;13.622;2023-08-12T06:51:47;25.80;60.10
38325;DHT22;24126;52.672;13.622;2023-08-12T06:54:14;25.80;60.30
38325;DHT22;24126;52.672;13.622;2023-08-12T06:56:41;25.90;60.50
38325;DHT22;24126;52.672;13.622;2023-08-12T06:59:08;26.00;60.20
38325;DHT22;24126;52.672;13.622;2023-08-12T07:01:36;26.10;59.90
38325;DHT22;24126;52.672;13.622;2023-08-12T07:04:03;26.20;59.70
38325;DHT22;24126;52.672;13.622;2023-08-12T07:06:31;26.20;59.40
38325;DHT22;24126;52.672;13.622;2023-08-12T07:08:58;26.20;59.30
38325;DHT22;24126;52.672;13.622;2023-08-12T07:11:25;26.30;59.50
38325;DHT22;24126;52.672;13.622;2023-08-12T07:13:52;26.40;59.20
38325;DHT22;24126;52.672;13.622;2023-08-12T07:16:19;26.40;59.30
38325;DHT22;24126;52.672;13.622;2023-08-12T07:18:46;26.50;59.00
38325;DHT22;24126;52.672;13.622;2023-08-12T07:21:13;26.70;59.10
38325;DHT22;24126;52.672;13.622;2023-08-12T07:23:40;26.90;58.50
38325;DHT22;24126;52.672;13.622;2023-08-12T07:26:07;27.00;58.50
38325;DHT22;24126;52.672;13.622;2023-08-12T07:28:34;27.20;58.50
38325;DHT22;24126;52.672;13.622;2023-08-12T07:31:01;27.30;58.40
38325;DHT22;24126;52.672;13.622;2023-08-12T07:33:28;27.50;58.30
38325;DHT22;24126;52.672;13.622;2023-08-12T07:35:55;27.60;57.60
38325;DHT22;24126;52.672;13.622;2023-08-12T07:38:23;27.70;57.50
38325;DHT22;24126;52.672;13.622;2023-08-12T07:40:50;27.80;57.50
38325;DHT22;24126;52.672;13.622;2023-08-12T07:43:17;27.90;57.10
38325;DHT22;24126;52.672;13.622;2023-08-12T07:45:44;28.00;57.20
38325;DHT22;24126;52.672;13.622;2023-08-12T07:48:11;28.00;56.80
38325;DHT22;24126;52.672;13.622;2023-08-12T07:50:38;28.10;56.60
38325;DHT22;24126;52.672;13.622;2023-08-12T07:53:05;28.20;56.70
38325;DHT22;24126;52.672;13.622;2023-08-12T07:55:32;28.30;56.70
38325;DHT22;24126;52.672;13.622;2023-08-12T07:57:59;28.30;56.20
38325;DHT22;24126;52.672;13.622;2023-08-12T08:00:26;28.30;56.00
38325;DHT22;24126;52.672;13.622;2023-08-12T08:02:52;28.40;56.40
38325;DHT22;24126;52.672;13.622;2023-08-12T08:05:19;28.50;56.60
38325;DHT22;24126;52.672;13.622;2023-08-12T08:07:46;28.60;55.90
38325;DHT22;24126;52.672;13.622;2023-08-12T08:10:13;28.70;56.00
38325;DHT22;24126;52.672;13.622;2023-08-12T08:12:41;28.80;55.40
38325;DHT22;24126;52.672;13.622;2023-08-12T08:15:08;28.90;55.20
38325;DHT22;24126;52.672;13.622;2023-08-12T08:17:35;28.90;55.30
38325;DHT22;24126;52.672;13.622;2023-08-12T08:20:02;28.90;55.20
38325;DHT22;24126;52.672;13.622;2023-08-12T08:22:31;28.90;56.00
38325;DHT22;24126;52.672;13.622;2023-08-12T08:24:59;28.90;55.40
38325;DHT22;24126;52.672;13.622;2023-08-12T08:27:26;29.00;55.50
38325;DHT22;24126;52.672;13.622;2023-08-12T08:29:53;28.90;55.40
38325;DHT22;24126;52.672;13.622;2023-08-12T08:32:20;28.90;55.50
38325;DHT22;24126;52.672;13.622;2023-08-12T08:34:47;28.80;55.50
38325;DHT22;24126;52.672;13.622;2023-08-12T08:37:14;28.80;55.60
38325;DHT22;24126;52.672;13.622;2023-08-12T08:39:41;28.80;55.80
38325;DHT22;24126;52.672;13.622;2023-08-12T08:42:08;28.80;56.10
38325;DHT22;24126;52.672;13.622;2023-08-12T08:44:36;28.70;56.00
38325;DHT22;24126;52.672;13.622;2023-08-12T08:47:08;28.60;55.80
38325;DHT22;24126;52.672;13.622;2023-08-12T08:49:35;28.50;55.80
38325;DHT22;24126;52.672;13.622;2023-08-12T08:52:03;28.40;55.80
38325;DHT22;24126;52.672;13.622;2023-08-12T08:54:30;28.40;56.40
38325;DHT22;24126;52.672;13.622;2023-08-12T08:56:57;28.30;56.50
38325;DHT22;24126;52.672;13.622;2023-08-12T08:59:24;28.20;56.70
38325;DHT22;24126;52.672;13.622;2023-08-12T09:01:51;28.20;56.90
38325;DHT22;24126;52.672;13.622;2023-08-12T09:04:20;28.10;56.70
38325;DHT22;24126;52.672;13.622;2023-08-12T09:06:48;28.00;56.80
38325;DHT22;24126;52.672;13.622;2023-08-12T09:09:16;28.00;57.30
38325;DHT22;24126;52.672;13.622;2023-08-12T09:11:47;27.90;57.60
38325;DHT22;24126;52.672;13.622;2023-08-12T09:14:14;27.90;57.70
38325;DHT22;24126;52.672;13.622;2023-08-12T09:16:41;27.80;57.60
38325;DHT22;24126;52.672;13.622;2023-08-12T09:19:08;27.80;58.00
38325;DHT22;24126;52.672;13.622;2023-08-12T09:21:35;27.80;58.60
38325;DHT22;24126;52.672;13.622;2023-08-12T09:24:03;27.80;59.10
38325;DHT22;24126;52.672;13.622;2023-08-12T09:26:30;27.80;59.00
38325;DHT22;24126;52.672;13.622;2023-08-12T09:28:58;27.90;59.00
38325;DHT22;24126;52.672;13.622;2023-08-12T09:31:26;27.90;59.10
38325;DHT22;24126;52.672;13.622;2023-08-12T09:33:57;27.90;59.00
38325;DHT22;24126;52.672;13.622;2023-08-12T09:36:27;28.00;59.20
38325;DHT22;24126;52.672;13.622;2023-08-12T09:38:54;28.00;59.20
38325;DHT22;24126;52.672;13.622;2023-08-12T09:41:22;28.10;59.20
38325;DHT22;24126;52.672;13.622;2023-08-12T09:43:50;28.20;59.10
38325;DHT22;24126;52.672;13.622;2023-08-12T09:46:17;28.30;59.00
38325;DHT22;24126;52.672;13.622;2023-08-12T09:48:44;28.40;58.50
38325;DHT22;24126;52.672;13.622;2023-08-12T09:51:11;28.40;58.10
38325;DHT22;24126;52.672;13.622;2023-08-12T09:53:39;28.50;58.20
38325;DHT22;24126;52.672;13.622;2023-08-12T09:56:07;28.60;58.20
38325;DHT22;24126;52.672;13.622;2023-08-12T09:58:35;28.70;57.90
38325;DHT22;24126;52.672;13.622;2023-08-12T10:01:05;28.80;58.20
38325;DHT22;24126;52.672;13.622;2023-08-12T10:03:33;28.90;57.40
38325;DHT22;24126;52.672;13.622;2023-08-12T10:06:00;29.00;57.20
38325;DHT22;24126;52.672;13.622;2023-08-12T10:08:29;29.00;57.20
38325;DHT22;24126;52.672;13.622;2023-08-12T10:10:56;29.00;56.80
38325;DHT22;24126;52.672;13.622;2023-08-12T10:13:23;29.00;57.20
38325;DHT22;24126;52.672;13.622;2023-08-12T10:15:50;29.00;56.90
38325;DHT22;24126;52.672;13.622;2023-08-12T10:18:18;29.10;57.30
38325;DHT22;24126;52.672;13.622;2023-08-12T10:20:45;29.20;57.20
38325;DHT22;24126;52.672;13.622;2023-08-12T10:23:15;29.20;57.10
38325;DHT22;24126;52.672;13.622;2023-08-12T10:25:43;29.20;57.30
38325;DHT22;24126;52.672;13.622;2023-08-12T10:28:10;29.20;57.30
38325;DHT22;24126;52.672;13.622;2023-08-12T10:30:39;29.30;57.70
38325;DHT22;24126;52.672;13.622;2023-08-12T10:33:06;29.30;58.00
38325;DHT22;24126;52.672;13.622;2023-08-12T10:35:43;29.30;57.60
38325;DHT22;24126;52.672;13.622;2023-08-12T10:38:11;29.30;57.10
38325;DHT22;24126;52.672;13.622;2023-08-12T10:40:39;29.30;57.50
38325;DHT22;24126;52.672;13.622;2023-08-12T10:43:06;29.30;57.40
38325;DHT22;24126;52.672;13.622;2023-08-12T10:45:40;29.30;57.40
38325;DHT22;24126;52.672;13.622;2023-08-12T10:50:35;29.30;57.30
38325;DHT22;24126;52.672;13.622;2023-08-12T10:55:48;29.40;57.10
38325;DHT22;24126;52.672;13.622;2023-08-12T11:01:21;29.50;56.80
38325;DHT22;24126;52.672;13.622;2023-08-12T11:03:49;29.60;56.80
38325;DHT22;24126;52.672;13.622;2023-08-12T11:06:17;29.50;56.50
38325;DHT22;24126;52.672;13.622;2023-08-12T11:08:52;29.60;56.60
38325;DHT22;24126;52.672;13.622;2023-08-12T11:11:20;29.60;57.10
38325;DHT22;24126;52.672;13.622;2023-08-12T11:13:54;29.60;56.50
38325;DHT22;24126;52.672;13.622;2023-08-12T11:16:35;29.60;56.80
38325;DHT22;24126;52.672;13.622;2023-08-12T11:19:03;29.60;57.20
38325;DHT22;24126;52.672;13.622;2023-08-12T11:21:30;29.70;57.30
38325;DHT22;24126;52.672;13.622;2023-08-12T11:23:57;29.80;57.20
38325;DHT22;24126;52.672;13.622;2023-08-12T11:26:26;29.80;57.00
38325;DHT22;24126;52.672;13.622;2023-08-12T11:28:53;29.80;57.20
38325;DHT22;24126;52.672;13.622;2023-08-12T11:31:21;29.90;57.70
38325;DHT22;24126;52.672;13.622;2023-08-12T11:33:48;29.90;57.10
38325;DHT22;24126;52.672;13.622;2023-08-12T11:36:15;29.90;56.80
38325;DHT22;24126;52.672;13.622;2023-08-12T11:38:43;29.90;57.90
38325;DHT22;24126;52.672;13.622;2023-08-12T11:41:10;30.00;57.70
38325;DHT22;24126;52.672;13.622;2023-08-12T11:43:38;30.10;57.90
38325;DHT22;24126;52.672;13.622;2023-08-12T11:46:05;30.10;57.80
38325;DHT22;24126;52.672;13.622;2023-08-12T11:48:32;30.10;58.00
38325;DHT22;24126;52.672;13.622;2023-08-12T11:50:59;30.10;57.60
38325;DHT22;24126;52.672;13.622;2023-08-12T11:53:26;30.10;58.20
38325;DHT22;24126;52.672;13.622;2023-08-12T11:55:53;30.10;57.80
38325;DHT22;24126;52.672;13.622;2023-08-12T11:58:20;30.10;58.10
38325;DHT22;24126;52.672;13.622;2023-08-12T12:00:49;30.10;58.50
38325;DHT22;24126;52.672;13.622;2023-08-12T12:03:16;30.10;58.50
38325;DHT22;24126;52.672;13.622;2023-08-12T12:05:45;30.20;58.30
38325;DHT22;24126;52.672;13.622;2023-08-12T12:08:13;30.20;58.60
38325;DHT22;24126;52.672;13.622;2023-08-12T12:10:40;30.20;58.30
38325;DHT22;24126;52.672;13.622;2023-08-12T12:13:07;30.20;58.60
38325;DHT22;24126;52.672;13.622;2023-08-12T12:15:43;30.20;59.20
38325;DHT22;24126;52.672;13.622;2023-08-12T12:18:11;30.10;59.10
38325;DHT22;24126;52.672;13.622;2023-08-12T12:20:42;30.10;59.50
38325;DHT22;24126;52.672;13.622;2023-08-12T12:23:09;30.10;59.70
38325;DHT22;24126;52.672;13.622;2023-08-12T12:25:36;30.10;59.70
38325;DHT22;24126;52.672;13.622;2023-08-12T12:28:03;30.10;59.80
38325;DHT22;24126;52.672;13.622;2023-08-12T12:30:31;30.00;59.60
38325;DHT22;24126;52.672;13.622;2023-08-12T12:32:58;30.10;59.80
38325;DHT22;24126;52.672;13.622;2023-08-12T12:35:25;30.10;59.70
38325;DHT22;24126;52.672;13.622;2023-08-12T12:37:52;30.10;59.70
38325;DHT22;24126;52.672;13.622;2023-08-12T12:40:19;30.10;59.50
38325;DHT22;24126;52.672;13.622;2023-08-12T12:42:46;30.10;59.40
38325;DHT22;24126;52.672;13.622;2023-08-12T12:45:13;30.10;59.20
38325;DHT22;24126;52.672;13.622;2023-08-12T12:47:40;30.10;59.20
38325;DHT22;24126;52.672;13.622;2023-08-12T12:50:07;30.10;59.20
38325;DHT22;24126;52.672;13.622;2023-08-12T12:52:35;30.10;58.90
38325;DHT22;24126;52.672;13.622;2023-08-12T12:55:02;30.10;58.90
38325;DHT22;24126;52.672;13.622;2023-08-12T12:57:30;30.00;58.80
38325;DHT22;24126;52.672;13.622;2023-08-12T12:59:58;29.90;58.80
38325;DHT22;24126;52.672;13.622;2023-08-12T13:02:26;29.90;58.70
38325;DHT22;24126;52.672;13.622;2023-08-12T13:04:53;29.80;58.50
38325;DHT22;24126;52.672;13.622;2023-08-12T13:07:20;29.60;58.50
38325;DHT22;24126;52.672;13.622;2023-08-12T13:09:47;29.60;58.50
38325;DHT22;24126;52.672;13.622;2023-08-12T13:12:14;29.50;58.70
38325;DHT22;24126;52.672;13.622;2023-08-12T13:14:41;29.50;58.90
38325;DHT22;24126;52.672;13.622;2023-08-12T13:17:08;29.50;59.10
38325;DHT22;24126;52.672;13.622;2023-08-12T13:19:36;29.50;59.00
38325;DHT22;24126;52.672;13.622;2023-08-12T13:22:03;29.60;59.00
38325;DHT22;24126;52.672;13.622;2023-08-12T13:24:30;29.60;59.10
38325;DHT22;24126;52.672;13.622;2023-08-12T13:26:57;29.60;58.50
38325;DHT22;24126;52.672;13.622;2023-08-12T13:29:24;29.70;58.50
38325;DHT22;24126;52.672;13.622;2023-08-12T13:31:52;29.80;58.20
38325;DHT22;24126;52.672;13.622;2023-08-12T13:34:19;29.80;58.00
38325;DHT22;24126;52.672;13.622;2023-08-12T13:36:46;29.80;58.50
38325;DHT22;24126;52.672;13.622;2023-08-12T13:39:13;29.90;58.60
38325;DHT22;24126;52.672;13.622;2023-08-12T13:41:41;30.00;58.40
38325;DHT22;24126;52.672;13.622;2023-08-12T13:44:09;30.00;58.30
38325;DHT22;24126;52.672;13.622;2023-08-12T13:46:36;30.10;58.00
38325;DHT22;24126;52.672;13.622;2023-08-12T13:49:03;30.20;57.90
38325;DHT22;24126;52.672;13.622;2023-08-12T13:51:31;30.30;57.90
38325;DHT22;24126;52.672;13.622;2023-08-12T13:53:58;30.30;57.70
38325;DHT22;24126;52.672;13.622;2023-08-12T13:56:25;30.40;57.30
38325;DHT22;24126;52.672;13.622;2023-08-12T13:58:52;30.40;57.10
38325;DHT22;24126;52.672;13.622;2023-08-12T14:01:20;30.40;57.10
38325;DHT22;24126;52.672;13.622;2023-08-12T14:03:47;30.40;57.50
38325;DHT22;24126;52.672;13.622;2023-08-12T14:06:14;30.40;57.50
38325;DHT22;24126;52.672;13.622;2023-08-12T14:08:41;30.40;57.60
38325;DHT22;24126;52.672;13.622;2023-08-12T14:11:08;30.50;57.30
38325;DHT22;24126;52.672;13.622;2023-08-12T14:13:35;30.60;57.30
38325;DHT22;24126;52.672;13.622;2023-08-12T14:16:02;30.60;56.70
38325;DHT22;24126;52.672;13.622;2023-08-12T14:18:29;30.70;56.90
38325;DHT22;24126;52.672;13.622;2023-08-12T14:20:56;30.80;56.50
38325;DHT22;24126;52.672;13.622;2023-08-12T14:23:24;30.80;56.80
38325;DHT22;24126;52.672;13.622;2023-08-12T14:25:51;30.80;56.70
38325;DHT22;24126;52.672;13.622;2023-08-12T14:28:18;30.80;56.70
38325;DHT22;24126;52.672;13.622;2023-08-12T14:30:45;30.90;56.90
38325;DHT22;24126;52.672;13.622;2023-08-12T14:33:13;30.90;56.60
38325;DHT22;24126;52.672;13.622;2023-08-12T14:35:40;30.90;56.90
38325;DHT22;24126;52.672;13.622;2023-08-12T14:38:07;30.90;57.30
38325;DHT22;24126;52.672;13.622;2023-08-12T14:40:34;30.90;55.50
38325;DHT22;24126;52.672;13.622;2023-08-12T14:43:01;30.90;54.90
38325;DHT22;24126;52.672;13.622;2023-08-12T14:45:29;30.90;54.70
38325;DHT22;24126;52.672;13.622;2023-08-12T14:48:04;30.90;54.40
38325;DHT22;24126;52.672;13.622;2023-08-12T14:50:31;30.90;54.70
38325;DHT22;24126;52.672;13.622;2023-08-12T14:52:58;30.90;54.70
38325;DHT22;24126;52.672;13.622;2023-08-12T14:55:25;30.90;54.60
38325;DHT22;24126;52.672;13.622;2023-08-12T14:57:52;31.00;54.90
38325;DHT22;24126;52.672;13.622;2023-08-12T15:00:19;31.00;55.60
38325;DHT22;24126;52.672;13.622;2023-08-12T15:02:46;31.00;55.30
38325;DHT22;24126;52.672;13.622;2023-08-12T15:05:13;31.10;55.40
38325;DHT22;24126;52.672;13.622;2023-08-12T15:07:41;31.10;55.30
38325;DHT22;24126;52.672;13.622;2023-08-12T15:10:09;31.10;55.50
38325;DHT22;24126;52.672;13.622;2023-08-12T15:12:36;31.10;55.40
38325;DHT22;24126;52.672;13.622;2023-08-12T15:15:03;31.10;55.00
38325;DHT22;24126;52.672;13.622;2023-08-12T15:17:39;31.10;55.20
38325;DHT22;24126;52.672;13.622;2023-08-12T15:20:12;31.20;55.30
38325;DHT22;24126;52.672;13.622;2023-08-12T15:22:41;31.20;55.30
38325;DHT22;24126;52.672;13.622;2023-08-12T15:25:09;31.20;55.50
38325;DHT22;24126;52.672;13.622;2023-08-12T15:28:09;31.20;55.10